sensor_id;sensor_type;location;lat;lon;timestamp;P1;durP1;ratioP1;P2;durP2;ratioP2
34459;SDS011;20704;51.260;22.558;2023-12-20T00:01:05;19.50;;;7.90;;
34459;SDS011;20704;51.260;22.558;2023-12-20T00:03:16;17.48;;;9.18;;
34459;SDS011;20704;51.260;22.558;2023-12-20T00:05:19;15.93;;;8.13;;
34459;SDS011;20704;51.260;22.558;2023-12-20T00:07:22;16.92;;;8.57;;
34459;SDS011;20704;51.260;22.558;2023-12-20T00:09:25;19.60;;;8.48;;
34459;SDS011;20704;51.260;22.558;2023-12-20T00:11:28;16.27;;;8.70;;
34459;SDS011;20704;51.260;22.558;2023-12-20T00:13:31;15.98;;;7.90;;
34459;SDS011;20704;51.260;22.558;2023-12-20T00:15:33;16.38;;;8.10;;
34459;SDS011;20704;51.260;22.558;2023-12-20T00:17:36;15.50;;;8.27;;
34459;SDS011;20704;51.260;22.558;2023-12-20T00:19:39;18.52;;;8.32;;
34459;SDS011;20704;51.260;22.558;2023-12-20T00:21:42;18.65;;;8.85;;
34459;SDS011;20704;51.260;22.558;2023-12-20T00:23:45;18.10;;;7.68;;
34459;SDS011;20704;51.260;22.558;2023-12-20T00:25:47;17.40;;;7.43;;
34459;SDS011;20704;51.260;22.558;2023-12-20T00:27:50;14.70;;;8.05;;
34459;SDS011;20704;51.260;22.558;2023-12-20T00:29:53;15.52;;;8.13;;
34459;SDS011;20704;51.260;22.558;2023-12-20T00:31:55;15.13;;;7.65;;
34459;SDS011;20704;51.260;22.558;2023-12-20T00:33:58;16.30;;;7.65;;
34459;SDS011;20704;51.260;22.558;2023-12-20T00:36:01;17.15;;;8.32;;
34459;SDS011;20704;51.260;22.558;2023-12-20T00:38:04;17.15;;;8.70;;
34459;SDS011;20704;51.260;22.558;2023-12-20T00:40:09;17.50;;;9.02;;
34459;SDS011;20704;51.260;22.558;2023-12-20T00:42:12;17.40;;;8.70;;
34459;SDS011;20704;51.260;22.558;2023-12-20T00:44:14;16.80;;;8.20;;
34459;SDS011;20704;51.260;22.558;2023-12-20T00:46:17;15.35;;;7.68;;
34459;SDS011;20704;51.260;22.558;2023-12-20T00:48:21;16.00;;;7.57;;
34459;SDS011;20704;51.260;22.558;2023-12-20T00:50:24;15.77;;;7.53;;
34459;SDS011;20704;51.260;22.558;2023-12-20T00:52:30;16.80;;;8.38;;
34459;SDS011;20704;51.260;22.558;2023-12-20T00:54:33;17.80;;;7.80;;
34459;SDS011;20704;51.260;22.558;2023-12-20T00:56:36;16.50;;;7.65;;
34459;SDS011;20704;51.260;22.558;2023-12-20T00:58:39;21.52;;;7.50;;
34459;SDS011;20704;51.260;22.558;2023-12-20T01:00:42;14.98;;;8.35;;
34459;SDS011;20704;51.260;22.558;2023-12-20T01:02:45;20.27;;;8.13;;
34459;SDS011;20704;51.260;22.558;2023-12-20T01:04:50;16.98;;;7.57;;
34459;SDS011;20704;51.260;22.558;2023-12-20T01:06:53;16.35;;;8.52;;
34459;SDS011;20704;51.260;22.558;2023-12-20T01:08:56;15.60;;;8.35;;
34459;SDS011;20704;51.260;22.558;2023-12-20T01:10:59;14.57;;;7.95;;
34459;SDS011;20704;51.260;22.558;2023-12-20T01:13:02;19.58;;;9.25;;
34459;SDS011;20704;51.260;22.558;2023-12-20T01:15:05;12.27;;;7.50;;
34459;SDS011;20704;51.260;22.558;2023-12-20T01:17:07;19.50;;;7.88;;
34459;SDS011;20704;51.260;22.558;2023-12-20T01:19:12;17.67;;;7.63;;
34459;SDS011;20704;51.260;22.558;2023-12-20T01:21:15;21.38;;;8.70;;
34459;SDS011;20704;51.260;22.558;2023-12-20T01:23:18;15.18;;;7.88;;
34459;SDS011;20704;51.260;22.558;2023-12-20T01:25:20;15.30;;;8.30;;
34459;SDS011;20704;51.260;22.558;2023-12-20T01:27:23;21.05;;;8.50;;
34459;SDS011;20704;51.260;22.558;2023-12-20T01:29:26;15.02;;;8.48;;
34459;SDS011;20704;51.260;22.558;2023-12-20T01:31:29;14.07;;;6.75;;
34459;SDS011;20704;51.260;22.558;2023-12-20T01:33:31;14.30;;;6.90;;
34459;SDS011;20704;51.260;22.558;2023-12-20T01:35:34;18.90;;;8.18;;
34459;SDS011;20704;51.260;22.558;2023-12-20T01:37:37;18.23;;;8.20;;
34459;SDS011;20704;51.260;22.558;2023-12-20T01:39:40;12.93;;;6.82;;
34459;SDS011;20704;51.260;22.558;2023-12-20T01:41:42;14.32;;;6.97;;
34459;SDS011;20704;51.260;22.558;2023-12-20T01:43:45;16.25;;;7.30;;
34459;SDS011;20704;51.260;22.558;2023-12-20T01:45:52;14.63;;;7.88;;
34459;SDS011;20704;51.260;22.558;2023-12-20T01:47:56;14.52;;;7.20;;
34459;SDS011;20704;51.260;22.558;2023-12-20T01:50:00;14.70;;;7.82;;
34459;SDS011;20704;51.260;22.558;2023-12-20T01:52:06;16.52;;;8.05;;
34459;SDS011;20704;51.260;22.558;2023-12-20T01:54:11;17.00;;;8.57;;
34459;SDS011;20704;51.260;22.558;2023-12-20T01:56:15;14.48;;;7.80;;
34459;SDS011;20704;51.260;22.558;2023-12-20T01:58:18;21.48;;;9.10;;
34459;SDS011;20704;51.260;22.558;2023-12-20T02:00:21;16.65;;;8.25;;
34459;SDS011;20704;51.260;22.558;2023-12-20T02:02:25;25.10;;;9.07;;
34459;SDS011;20704;51.260;22.558;2023-12-20T02:04:30;16.33;;;7.82;;
34459;SDS011;20704;51.260;22.558;2023-12-20T02:06:33;15.27;;;7.75;;
34459;SDS011;20704;51.260;22.558;2023-12-20T02:08:36;17.75;;;7.53;;
34459;SDS011;20704;51.260;22.558;2023-12-20T02:10:39;18.70;;;8.45;;
34459;SDS011;20704;51.260;22.558;2023-12-20T02:12:42;14.50;;;7.70;;
34459;SDS011;20704;51.260;22.558;2023-12-20T02:14:45;16.98;;;7.72;;
34459;SDS011;20704;51.260;22.558;2023-12-20T02:16:48;18.15;;;8.07;;
34459;SDS011;20704;51.260;22.558;2023-12-20T02:18:51;17.83;;;8.18;;
34459;SDS011;20704;51.260;22.558;2023-12-20T02:20:54;16.98;;;8.48;;
34459;SDS011;20704;51.260;22.558;2023-12-20T02:22:57;17.48;;;8.70;;
34459;SDS011;20704;51.260;22.558;2023-12-20T02:25:00;19.00;;;8.38;;
34459;SDS011;20704;51.260;22.558;2023-12-20T02:27:03;20.88;;;8.25;;
34459;SDS011;20704;51.260;22.558;2023-12-20T02:29:05;18.63;;;8.93;;
34459;SDS011;20704;51.260;22.558;2023-12-20T02:31:08;16.20;;;8.98;;
34459;SDS011;20704;51.260;22.558;2023-12-20T02:33:12;18.88;;;8.32;;
34459;SDS011;20704;51.260;22.558;2023-12-20T02:35:16;14.40;;;8.02;;
34459;SDS011;20704;51.260;22.558;2023-12-20T02:37:19;20.40;;;9.00;;
34459;SDS011;20704;51.260;22.558;2023-12-20T02:39:22;17.73;;;8.73;;
34459;SDS011;20704;51.260;22.558;2023-12-20T02:41:25;19.88;;;9.05;;
34459;SDS011;20704;51.260;22.558;2023-12-20T02:43:27;18.15;;;8.20;;
34459;SDS011;20704;51.260;22.558;2023-12-20T02:45:30;17.85;;;9.57;;
34459;SDS011;20704;51.260;22.558;2023-12-20T02:47:32;18.17;;;9.05;;
34459;SDS011;20704;51.260;22.558;2023-12-20T02:49:35;17.05;;;8.85;;
34459;SDS011;20704;51.260;22.558;2023-12-20T02:51:38;16.50;;;8.00;;
34459;SDS011;20704;51.260;22.558;2023-12-20T02:53:41;15.85;;;7.25;;
34459;SDS011;20704;51.260;22.558;2023-12-20T02:55:44;14.50;;;7.32;;
34459;SDS011;20704;51.260;22.558;2023-12-20T02:57:46;13.93;;;7.70;;
34459;SDS011;20704;51.260;22.558;2023-12-20T02:59:49;13.75;;;7.18;;
34459;SDS011;20704;51.260;22.558;2023-12-20T03:01:52;16.48;;;8.93;;
34459;SDS011;20704;51.260;22.558;2023-12-20T03:03:55;16.95;;;9.02;;
34459;SDS011;20704;51.260;22.558;2023-12-20T03:05:58;17.58;;;7.65;;
34459;SDS011;20704;51.260;22.558;2023-12-20T03:08:01;16.70;;;8.35;;
34459;SDS011;20704;51.260;22.558;2023-12-20T03:10:04;17.08;;;8.35;;
34459;SDS011;20704;51.260;22.558;2023-12-20T03:12:21;14.77;;;7.25;;
34459;SDS011;20704;51.260;22.558;2023-12-20T03:14:24;24.90;;;9.00;;
34459;SDS011;20704;51.260;22.558;2023-12-20T03:16:27;15.48;;;7.63;;
34459;SDS011;20704;51.260;22.558;2023-12-20T03:18:29;16.55;;;8.77;;
34459;SDS011;20704;51.260;22.558;2023-12-20T03:20:32;17.83;;;8.70;;
34459;SDS011;20704;51.260;22.558;2023-12-20T03:22:36;15.85;;;7.85;;
34459;SDS011;20704;51.260;22.558;2023-12-20T03:24:39;16.73;;;7.95;;
34459;SDS011;20704;51.260;22.558;2023-12-20T03:26:41;17.60;;;8.65;;
34459;SDS011;20704;51.260;22.558;2023-12-20T03:28:44;16.63;;;7.75;;
34459;SDS011;20704;51.260;22.558;2023-12-20T03:30:46;14.60;;;7.50;;
34459;SDS011;20704;51.260;22.558;2023-12-20T03:32:49;15.45;;;7.75;;
34459;SDS011;20704;51.260;22.558;2023-12-20T03:34:52;17.00;;;8.52;;
34459;SDS011;20704;51.260;22.558;2023-12-20T03:36:55;16.00;;;7.97;;
34459;SDS011;20704;51.260;22.558;2023-12-20T03:38:58;19.42;;;9.65;;
34459;SDS011;20704;51.260;22.558;2023-12-20T03:41:01;16.73;;;8.18;;
34459;SDS011;20704;51.260;22.558;2023-12-20T03:43:03;16.67;;;8.77;;
34459;SDS011;20704;51.260;22.558;2023-12-20T03:45:07;13.63;;;8.05;;
34459;SDS011;20704;51.260;22.558;2023-12-20T03:47:09;19.38;;;8.63;;
34459;SDS011;20704;51.260;22.558;2023-12-20T03:49:12;15.85;;;8.40;;
34459;SDS011;20704;51.260;22.558;2023-12-20T03:51:15;17.77;;;9.40;;
34459;SDS011;20704;51.260;22.558;2023-12-20T03:53:17;18.90;;;9.35;;
34459;SDS011;20704;51.260;22.558;2023-12-20T03:55:20;18.00;;;8.75;;
34459;SDS011;20704;51.260;22.558;2023-12-20T03:57:23;15.55;;;8.05;;
34459;SDS011;20704;51.260;22.558;2023-12-20T03:59:25;18.13;;;8.25;;
34459;SDS011;20704;51.260;22.558;2023-12-20T04:01:28;16.00;;;7.78;;
34459;SDS011;20704;51.260;22.558;2023-12-20T04:03:30;16.77;;;7.72;;
34459;SDS011;20704;51.260;22.558;2023-12-20T04:05:34;17.83;;;8.38;;
34459;SDS011;20704;51.260;22.558;2023-12-20T04:07:36;18.52;;;8.70;;
34459;SDS011;20704;51.260;22.558;2023-12-20T04:09:40;15.20;;;8.48;;
34459;SDS011;20704;51.260;22.558;2023-12-20T04:11:43;17.92;;;8.65;;
34459;SDS011;20704;51.260;22.558;2023-12-20T04:13:45;16.35;;;10.10;;
34459;SDS011;20704;51.260;22.558;2023-12-20T04:15:48;16.67;;;8.10;;
34459;SDS011;20704;51.260;22.558;2023-12-20T04:17:53;17.35;;;8.13;;
34459;SDS011;20704;51.260;22.558;2023-12-20T04:19:55;14.55;;;8.50;;
34459;SDS011;20704;51.260;22.558;2023-12-20T04:21:58;16.13;;;8.82;;
34459;SDS011;20704;51.260;22.558;2023-12-20T04:24:01;16.95;;;8.90;;
34459;SDS011;20704;51.260;22.558;2023-12-20T04:26:04;14.85;;;8.32;;
34459;SDS011;20704;51.260;22.558;2023-12-20T04:28:06;16.00;;;8.95;;
34459;SDS011;20704;51.260;22.558;2023-12-20T04:30:09;14.73;;;8.48;;
34459;SDS011;20704;51.260;22.558;2023-12-20T04:32:12;17.65;;;8.07;;
34459;SDS011;20704;51.260;22.558;2023-12-20T04:34:14;15.77;;;8.13;;
34459;SDS011;20704;51.260;22.558;2023-12-20T04:36:17;15.55;;;7.93;;
34459;SDS011;20704;51.260;22.558;2023-12-20T04:38:20;15.68;;;8.63;;
34459;SDS011;20704;51.260;22.558;2023-12-20T04:40:23;18.52;;;9.00;;
34459;SDS011;20704;51.260;22.558;2023-12-20T04:42:26;17.40;;;7.90;;
34459;SDS011;20704;51.260;22.558;2023-12-20T04:44:28;16.95;;;8.07;;
34459;SDS011;20704;51.260;22.558;2023-12-20T04:46:31;19.38;;;9.05;;
34459;SDS011;20704;51.260;22.558;2023-12-20T04:48:33;17.52;;;9.60;;
34459;SDS011;20704;51.260;22.558;2023-12-20T04:50:36;18.02;;;9.07;;
34459;SDS011;20704;51.260;22.558;2023-12-20T04:52:39;22.30;;;10.10;;
34459;SDS011;20704;51.260;22.558;2023-12-20T04:54:42;21.15;;;11.02;;
34459;SDS011;20704;51.260;22.558;2023-12-20T04:56:45;19.05;;;8.73;;
34459;SDS011;20704;51.260;22.558;2023-12-20T04:58:49;18.33;;;9.07;;
34459;SDS011;20704;51.260;22.558;2023-12-20T05:00:51;18.83;;;8.50;;
34459;SDS011;20704;51.260;22.558;2023-12-20T05:02:54;19.00;;;8.85;;
34459;SDS011;20704;51.260;22.558;2023-12-20T05:04:57;16.10;;;8.57;;
34459;SDS011;20704;51.260;22.558;2023-12-20T05:07:00;18.10;;;8.30;;
34459;SDS011;20704;51.260;22.558;2023-12-20T05:09:03;17.48;;;9.48;;
34459;SDS011;20704;51.260;22.558;2023-12-20T05:11:06;19.40;;;9.63;;
34459;SDS011;20704;51.260;22.558;2023-12-20T05:13:08;17.35;;;8.18;;
34459;SDS011;20704;51.260;22.558;2023-12-20T05:15:11;18.50;;;8.88;;
34459;SDS011;20704;51.260;22.558;2023-12-20T05:17:14;16.15;;;8.75;;
34459;SDS011;20704;51.260;22.558;2023-12-20T05:19:17;17.48;;;8.45;;
34459;SDS011;20704;51.260;22.558;2023-12-20T05:21:19;21.08;;;10.05;;
34459;SDS011;20704;51.260;22.558;2023-12-20T05:23:22;15.95;;;8.00;;
34459;SDS011;20704;51.260;22.558;2023-12-20T05:25:25;15.75;;;8.82;;
34459;SDS011;20704;51.260;22.558;2023-12-20T05:27:28;18.08;;;8.73;;
34459;SDS011;20704;51.260;22.558;2023-12-20T05:29:30;15.05;;;8.15;;
34459;SDS011;20704;51.260;22.558;2023-12-20T05:31:33;18.58;;;8.95;;
34459;SDS011;20704;51.260;22.558;2023-12-20T05:33:35;18.10;;;9.15;;
34459;SDS011;20704;51.260;22.558;2023-12-20T05:35:39;17.88;;;8.23;;
34459;SDS011;20704;51.260;22.558;2023-12-20T05:37:41;14.10;;;7.68;;
34459;SDS011;20704;51.260;22.558;2023-12-20T05:39:45;16.83;;;8.38;;
34459;SDS011;20704;51.260;22.558;2023-12-20T05:41:47;15.60;;;8.43;;
34459;SDS011;20704;51.260;22.558;2023-12-20T05:43:50;15.70;;;8.52;;
34459;SDS011;20704;51.260;22.558;2023-12-20T05:45:53;15.48;;;7.95;;
34459;SDS011;20704;51.260;22.558;2023-12-20T05:47:55;16.73;;;8.68;;
34459;SDS011;20704;51.260;22.558;2023-12-20T05:49:58;16.38;;;8.27;;
34459;SDS011;20704;51.260;22.558;2023-12-20T05:52:01;15.85;;;8.15;;
34459;SDS011;20704;51.260;22.558;2023-12-20T05:54:03;16.17;;;8.93;;
34459;SDS011;20704;51.260;22.558;2023-12-20T05:56:06;15.30;;;7.95;;
34459;SDS011;20704;51.260;22.558;2023-12-20T05:58:08;16.55;;;7.75;;
34459;SDS011;20704;51.260;22.558;2023-12-20T06:00:12;13.43;;;7.55;;
34459;SDS011;20704;51.260;22.558;2023-12-20T06:02:14;15.02;;;8.32;;
34459;SDS011;20704;51.260;22.558;2023-12-20T06:04:17;19.10;;;9.73;;
34459;SDS011;20704;51.260;22.558;2023-12-20T06:06:23;12.25;;;7.80;;
34459;SDS011;20704;51.260;22.558;2023-12-20T06:08:26;16.67;;;8.82;;
34459;SDS011;20704;51.260;22.558;2023-12-20T06:10:29;15.60;;;8.35;;
34459;SDS011;20704;51.260;22.558;2023-12-20T06:12:31;17.13;;;9.38;;
34459;SDS011;20704;51.260;22.558;2023-12-20T06:14:37;18.63;;;9.52;;
34459;SDS011;20704;51.260;22.558;2023-12-20T06:16:40;14.57;;;8.20;;
34459;SDS011;20704;51.260;22.558;2023-12-20T06:18:43;16.35;;;9.02;;
34459;SDS011;20704;51.260;22.558;2023-12-20T06:20:46;15.88;;;8.90;;
34459;SDS011;20704;51.260;22.558;2023-12-20T06:22:48;13.55;;;7.45;;
34459;SDS011;20704;51.260;22.558;2023-12-20T06:24:51;17.98;;;8.30;;
34459;SDS011;20704;51.260;22.558;2023-12-20T06:26:54;14.95;;;7.93;;
34459;SDS011;20704;51.260;22.558;2023-12-20T06:28:57;15.95;;;8.27;;
34459;SDS011;20704;51.260;22.558;2023-12-20T06:31:00;19.48;;;8.35;;
34459;SDS011;20704;51.260;22.558;2023-12-20T06:33:03;17.70;;;9.18;;
34459;SDS011;20704;51.260;22.558;2023-12-20T06:35:06;15.50;;;9.30;;
34459;SDS011;20704;51.260;22.558;2023-12-20T06:37:09;15.65;;;8.55;;
34459;SDS011;20704;51.260;22.558;2023-12-20T06:39:12;15.35;;;8.77;;
34459;SDS011;20704;51.260;22.558;2023-12-20T06:41:15;18.85;;;9.63;;
34459;SDS011;20704;51.260;22.558;2023-12-20T06:43:18;16.33;;;9.48;;
34459;SDS011;20704;51.260;22.558;2023-12-20T06:45:41;17.40;;;9.27;;
34459;SDS011;20704;51.260;22.558;2023-12-20T06:47:43;14.88;;;8.90;;
34459;SDS011;20704;51.260;22.558;2023-12-20T06:49:47;16.02;;;7.97;;
34459;SDS011;20704;51.260;22.558;2023-12-20T06:51:50;18.55;;;8.73;;
34459;SDS011;20704;51.260;22.558;2023-12-20T06:53:52;14.23;;;7.93;;
34459;SDS011;20704;51.260;22.558;2023-12-20T06:55:55;20.23;;;9.43;;
34459;SDS011;20704;51.260;22.558;2023-12-20T06:57:58;12.80;;;8.18;;
34459;SDS011;20704;51.260;22.558;2023-12-20T07:00:02;18.27;;;8.60;;
34459;SDS011;20704;51.260;22.558;2023-12-20T07:02:05;17.60;;;9.82;;
34459;SDS011;20704;51.260;22.558;2023-12-20T07:04:15;17.20;;;9.40;;
34459;SDS011;20704;51.260;22.558;2023-12-20T07:06:22;17.73;;;9.13;;
34459;SDS011;20704;51.260;22.558;2023-12-20T07:08:27;17.85;;;9.90;;
34459;SDS011;20704;51.260;22.558;2023-12-20T07:10:30;19.00;;;9.43;;
34459;SDS011;20704;51.260;22.558;2023-12-20T07:12:33;20.00;;;9.88;;
34459;SDS011;20704;51.260;22.558;2023-12-20T07:14:35;20.00;;;9.75;;
34459;SDS011;20704;51.260;22.558;2023-12-20T07:16:38;17.27;;;8.32;;
34459;SDS011;20704;51.260;22.558;2023-12-20T07:18:42;17.45;;;9.57;;
34459;SDS011;20704;51.260;22.558;2023-12-20T07:20:44;17.05;;;9.23;;
34459;SDS011;20704;51.260;22.558;2023-12-20T07:22:47;21.85;;;10.45;;
34459;SDS011;20704;51.260;22.558;2023-12-20T07:24:50;18.13;;;8.75;;
34459;SDS011;20704;51.260;22.558;2023-12-20T07:26:54;19.02;;;9.13;;
34459;SDS011;20704;51.260;22.558;2023-12-20T07:28:57;19.80;;;10.60;;
34459;SDS011;20704;51.260;22.558;2023-12-20T07:31:00;16.60;;;9.95;;
34459;SDS011;20704;51.260;22.558;2023-12-20T07:33:03;18.80;;;9.18;;
34459;SDS011;20704;51.260;22.558;2023-12-20T07:35:06;17.77;;;8.95;;
34459;SDS011;20704;51.260;22.558;2023-12-20T07:37:09;20.67;;;9.40;;
34459;SDS011;20704;51.260;22.558;2023-12-20T07:39:13;18.92;;;9.35;;
34459;SDS011;20704;51.260;22.558;2023-12-20T07:41:16;20.42;;;9.55;;
34459;SDS011;20704;51.260;22.558;2023-12-20T07:43:19;19.42;;;8.98;;
34459;SDS011;20704;51.260;22.558;2023-12-20T07:45:22;19.58;;;10.23;;
34459;SDS011;20704;51.260;22.558;2023-12-20T07:47:24;15.75;;;8.27;;
34459;SDS011;20704;51.260;22.558;2023-12-20T07:49:27;19.23;;;9.65;;
34459;SDS011;20704;51.260;22.558;2023-12-20T07:51:30;19.85;;;8.75;;
34459;SDS011;20704;51.260;22.558;2023-12-20T07:53:33;17.90;;;9.10;;
34459;SDS011;20704;51.260;22.558;2023-12-20T07:55:37;19.00;;;9.70;;
34459;SDS011;20704;51.260;22.558;2023-12-20T07:57:40;19.42;;;9.45;;
34459;SDS011;20704;51.260;22.558;2023-12-20T07:59:43;19.00;;;9.75;;
34459;SDS011;20704;51.260;22.558;2023-12-20T08:01:46;20.60;;;8.43;;
34459;SDS011;20704;51.260;22.558;2023-12-20T08:03:49;20.95;;;10.68;;
34459;SDS011;20704;51.260;22.558;2023-12-20T08:05:53;17.75;;;10.20;;
34459;SDS011;20704;51.260;22.558;2023-12-20T08:07:56;19.63;;;9.82;;
34459;SDS011;20704;51.260;22.558;2023-12-20T08:09:58;24.42;;;10.35;;
34459;SDS011;20704;51.260;22.558;2023-12-20T08:12:01;19.95;;;9.95;;
34459;SDS011;20704;51.260;22.558;2023-12-20T08:14:04;21.50;;;9.73;;
34459;SDS011;20704;51.260;22.558;2023-12-20T08:16:07;17.75;;;10.20;;
34459;SDS011;20704;51.260;22.558;2023-12-20T08:18:10;16.98;;;9.82;;
34459;SDS011;20704;51.260;22.558;2023-12-20T08:20:13;18.02;;;8.93;;
34459;SDS011;20704;51.260;22.558;2023-12-20T08:22:26;20.48;;;9.95;;
34459;SDS011;20704;51.260;22.558;2023-12-20T08:24:30;18.58;;;9.65;;
34459;SDS011;20704;51.260;22.558;2023-12-20T08:26:32;21.63;;;9.68;;
34459;SDS011;20704;51.260;22.558;2023-12-20T08:28:36;18.75;;;10.38;;
34459;SDS011;20704;51.260;22.558;2023-12-20T08:30:39;20.55;;;9.98;;
34459;SDS011;20704;51.260;22.558;2023-12-20T08:32:42;20.15;;;8.68;;
34459;SDS011;20704;51.260;22.558;2023-12-20T08:34:45;14.93;;;8.88;;
34459;SDS011;20704;51.260;22.558;2023-12-20T08:36:48;16.42;;;7.43;;
34459;SDS011;20704;51.260;22.558;2023-12-20T08:38:51;12.63;;;7.88;;
34459;SDS011;20704;51.260;22.558;2023-12-20T08:40:54;16.40;;;8.80;;
34459;SDS011;20704;51.260;22.558;2023-12-20T08:42:56;16.02;;;8.15;;
34459;SDS011;20704;51.260;22.558;2023-12-20T08:44:59;14.15;;;7.78;;
34459;SDS011;20704;51.260;22.558;2023-12-20T08:47:02;14.93;;;8.75;;
34459;SDS011;20704;51.260;22.558;2023-12-20T08:49:04;18.05;;;8.23;;
34459;SDS011;20704;51.260;22.558;2023-12-20T08:51:08;16.13;;;8.10;;
34459;SDS011;20704;51.260;22.558;2023-12-20T08:53:11;17.58;;;8.80;;
34459;SDS011;20704;51.260;22.558;2023-12-20T08:55:14;14.23;;;7.80;;
34459;SDS011;20704;51.260;22.558;2023-12-20T08:57:19;12.40;;;7.20;;
34459;SDS011;20704;51.260;22.558;2023-12-20T08:59:22;14.70;;;7.32;;
34459;SDS011;20704;51.260;22.558;2023-12-20T09:01:25;13.75;;;7.65;;
34459;SDS011;20704;51.260;22.558;2023-12-20T09:03:28;18.83;;;9.00;;
34459;SDS011;20704;51.260;22.558;2023-12-20T09:05:31;13.57;;;7.55;;
34459;SDS011;20704;51.260;22.558;2023-12-20T09:07:33;15.57;;;8.10;;
34459;SDS011;20704;51.260;22.558;2023-12-20T09:09:36;16.08;;;7.72;;
34459;SDS011;20704;51.260;22.558;2023-12-20T09:11:39;13.93;;;8.05;;
34459;SDS011;20704;51.260;22.558;2023-12-20T09:13:42;12.93;;;7.47;;
34459;SDS011;20704;51.260;22.558;2023-12-20T09:15:45;16.13;;;7.82;;
34459;SDS011;20704;51.260;22.558;2023-12-20T09:17:48;16.30;;;7.82;;
34459;SDS011;20704;51.260;22.558;2023-12-20T09:19:51;12.23;;;6.38;;
34459;SDS011;20704;51.260;22.558;2023-12-20T09:21:56;17.33;;;8.57;;
34459;SDS011;20704;51.260;22.558;2023-12-20T09:23:58;15.90;;;7.47;;
34459;SDS011;20704;51.260;22.558;2023-12-20T09:26:01;13.00;;;7.60;;
34459;SDS011;20704;51.260;22.558;2023-12-20T09:28:03;19.25;;;9.73;;
34459;SDS011;20704;51.260;22.558;2023-12-20T09:30:06;14.95;;;7.95;;
34459;SDS011;20704;51.260;22.558;2023-12-20T09:32:09;12.20;;;7.03;;
34459;SDS011;20704;51.260;22.558;2023-12-20T09:34:14;14.63;;;7.57;;
34459;SDS011;20704;51.260;22.558;2023-12-20T09:36:20;14.00;;;7.15;;
34459;SDS011;20704;51.260;22.558;2023-12-20T09:38:23;11.88;;;6.50;;
34459;SDS011;20704;51.260;22.558;2023-12-20T09:40:26;13.65;;;7.57;;
34459;SDS011;20704;51.260;22.558;2023-12-20T09:42:39;13.50;;;7.28;;
34459;SDS011;20704;51.260;22.558;2023-12-20T09:44:54;15.85;;;7.72;;
34459;SDS011;20704;51.260;22.558;2023-12-20T09:46:58;13.82;;;7.97;;
34459;SDS011;20704;51.260;22.558;2023-12-20T09:49:03;15.55;;;7.45;;
34459;SDS011;20704;51.260;22.558;2023-12-20T09:51:06;14.32;;;7.03;;
34459;SDS011;20704;51.260;22.558;2023-12-20T09:53:10;13.57;;;7.30;;
34459;SDS011;20704;51.260;22.558;2023-12-20T09:55:19;15.27;;;8.85;;
34459;SDS011;20704;51.260;22.558;2023-12-20T09:57:23;15.13;;;8.23;;
34459;SDS011;20704;51.260;22.558;2023-12-20T09:59:28;11.52;;;6.80;;
34459;SDS011;20704;51.260;22.558;2023-12-20T10:01:31;12.23;;;7.28;;
34459;SDS011;20704;51.260;22.558;2023-12-20T10:03:34;14.93;;;8.00;;
34459;SDS011;20704;51.260;22.558;2023-12-20T10:05:37;12.52;;;7.65;;
34459;SDS011;20704;51.260;22.558;2023-12-20T10:07:46;17.05;;;8.57;;
34459;SDS011;20704;51.260;22.558;2023-12-20T10:09:49;13.75;;;8.05;;
34459;SDS011;20704;51.260;22.558;2023-12-20T10:11:54;16.48;;;8.20;;
34459;SDS011;20704;51.260;22.558;2023-12-20T10:13:59;15.55;;;7.57;;
34459;SDS011;20704;51.260;22.558;2023-12-20T10:16:05;13.73;;;7.32;;
34459;SDS011;20704;51.260;22.558;2023-12-20T10:18:09;13.50;;;8.07;;
34459;SDS011;20704;51.260;22.558;2023-12-20T10:20:13;11.07;;;6.80;;
34459;SDS011;20704;51.260;22.558;2023-12-20T10:22:16;18.98;;;8.63;;
34459;SDS011;20704;51.260;22.558;2023-12-20T10:24:19;13.40;;;6.82;;
34459;SDS011;20704;51.260;22.558;2023-12-20T10:26:22;13.32;;;7.82;;
34459;SDS011;20704;51.260;22.558;2023-12-20T10:28:25;19.08;;;7.97;;
34459;SDS011;20704;51.260;22.558;2023-12-20T10:30:31;13.23;;;6.88;;
34459;SDS011;20704;51.260;22.558;2023-12-20T10:32:34;13.65;;;7.25;;
34459;SDS011;20704;51.260;22.558;2023-12-20T10:34:37;14.13;;;7.63;;
34459;SDS011;20704;51.260;22.558;2023-12-20T10:36:40;12.18;;;6.13;;
34459;SDS011;20704;51.260;22.558;2023-12-20T10:38:42;11.23;;;6.70;;
34459;SDS011;20704;51.260;22.558;2023-12-20T10:40:46;14.07;;;6.18;;
34459;SDS011;20704;51.260;22.558;2023-12-20T10:42:49;13.82;;;7.03;;
34459;SDS011;20704;51.260;22.558;2023-12-20T10:44:53;11.10;;;6.07;;
34459;SDS011;20704;51.260;22.558;2023-12-20T10:46:55;12.45;;;6.15;;
34459;SDS011;20704;51.260;22.558;2023-12-20T10:49:03;11.25;;;6.25;;
34459;SDS011;20704;51.260;22.558;2023-12-20T10:51:06;10.63;;;4.82;;
34459;SDS011;20704;51.260;22.558;2023-12-20T10:53:10;13.70;;;5.32;;
34459;SDS011;20704;51.260;22.558;2023-12-20T10:55:14;6.00;;;3.30;;
34459;SDS011;20704;51.260;22.558;2023-12-20T10:57:17;9.48;;;3.83;;
34459;SDS011;20704;51.260;22.558;2023-12-20T10:59:20;7.45;;;4.30;;
34459;SDS011;20704;51.260;22.558;2023-12-20T11:01:26;9.65;;;4.20;;
34459;SDS011;20704;51.260;22.558;2023-12-20T11:03:32;5.72;;;3.70;;
34459;SDS011;20704;51.260;22.558;2023-12-20T11:05:43;7.35;;;4.65;;
34459;SDS011;20704;51.260;22.558;2023-12-20T11:10:18;4.35;;;2.17;;
34459;SDS011;20704;51.260;22.558;2023-12-20T11:14:35;3.00;;;1.40;;
34459;SDS011;20704;51.260;22.558;2023-12-20T11:16:41;3.38;;;2.10;;
34459;SDS011;20704;51.260;22.558;2023-12-20T11:18:55;4.47;;;2.70;;
34459;SDS011;20704;51.260;22.558;2023-12-20T11:21:02;5.30;;;2.30;;
34459;SDS011;20704;51.260;22.558;2023-12-20T11:23:07;3.78;;;1.90;;
34459;SDS011;20704;51.260;22.558;2023-12-20T11:25:10;8.90;;;4.13;;
34459;SDS011;20704;51.260;22.558;2023-12-20T11:27:14;4.00;;;2.30;;
34459;SDS011;20704;51.260;22.558;2023-12-20T11:29:29;7.57;;;2.17;;
34459;SDS011;20704;51.260;22.558;2023-12-20T11:31:39;7.15;;;3.65;;
34459;SDS011;20704;51.260;22.558;2023-12-20T11:33:42;5.53;;;2.95;;
34459;SDS011;20704;51.260;22.558;2023-12-20T11:35:46;5.40;;;2.33;;
34459;SDS011;20704;51.260;22.558;2023-12-20T11:37:48;7.47;;;2.38;;
34459;SDS011;20704;51.260;22.558;2023-12-20T11:39:55;5.25;;;2.88;;
34459;SDS011;20704;51.260;22.558;2023-12-20T11:42:04;6.05;;;3.38;;
34459;SDS011;20704;51.260;22.558;2023-12-20T11:44:08;3.85;;;2.78;;
34459;SDS011;20704;51.260;22.558;2023-12-20T11:46:10;5.60;;;2.22;;
34459;SDS011;20704;51.260;22.558;2023-12-20T11:48:13;5.30;;;2.38;;
34459;SDS011;20704;51.260;22.558;2023-12-20T11:50:17;4.22;;;2.25;;
34459;SDS011;20704;51.260;22.558;2023-12-20T11:52:21;4.53;;;2.05;;
34459;SDS011;20704;51.260;22.558;2023-12-20T11:54:23;3.85;;;2.13;;
34459;SDS011;20704;51.260;22.558;2023-12-20T11:56:26;2.35;;;1.40;;
34459;SDS011;20704;51.260;22.558;2023-12-20T11:58:29;3.60;;;1.88;;
34459;SDS011;20704;51.260;22.558;2023-12-20T12:00:32;6.63;;;1.75;;
34459;SDS011;20704;51.260;22.558;2023-12-20T12:02:35;3.53;;;1.77;;
34459;SDS011;20704;51.260;22.558;2023-12-20T12:04:41;4.55;;;1.50;;
34459;SDS011;20704;51.260;22.558;2023-12-20T12:06:44;2.35;;;1.58;;
34459;SDS011;20704;51.260;22.558;2023-12-20T12:08:47;7.13;;;2.00;;